sensor_id;sensor_type;location;lat;lon;timestamp;pressure;altitude;pressure_sealevel;temperature
19061;BMP280;9663;48.996;8.334;2023-07-02T00:01:47;99679.94;;;23.16
19061;BMP280;9663;48.996;8.334;2023-07-02T00:04:14;99678.94;;;23.18
19061;BMP280;9663;48.996;8.334;2023-07-02T00:06:47;99678.75;;;23.21
19061;BMP280;9663;48.996;8.334;2023-07-02T00:09:14;99667.56;;;23.20
19061;BMP280;9663;48.996;8.334;2023-07-02T00:11:44;99671.00;;;23.21
19061;BMP280;9663;48.996;8.334;2023-07-02T00:14:12;99670.13;;;23.20
19061;BMP280;9663;48.996;8.334;2023-07-02T00:16:45;99672.81;;;23.19
19061;BMP280;9663;48.996;8.334;2023-07-02T00:19:13;99680.59;;;23.19
19061;BMP280;9663;48.996;8.334;2023-07-02T00:21:39;99663.44;;;23.18
19061;BMP280;9663;48.996;8.334;2023-07-02T00:24:07;99678.84;;;23.19
19061;BMP280;9663;48.996;8.334;2023-07-02T00:26:35;99686.59;;;23.19
19061;BMP280;9663;48.996;8.334;2023-07-02T00:29:01;99669.31;;;23.20
19061;BMP280;9663;48.996;8.334;2023-07-02T00:31:29;99682.97;;;23.22
19061;BMP280;9663;48.996;8.334;2023-07-02T00:33:55;99682.06;;;23.23
19061;BMP280;9663;48.996;8.334;2023-07-02T00:36:21;99675.13;;;23.23
19061;BMP280;9663;48.996;8.334;2023-07-02T00:38:48;99675.03;;;23.25
19061;BMP280;9663;48.996;8.334;2023-07-02T00:41:15;99677.53;;;23.26
19061;BMP280;9663;48.996;8.334;2023-07-02T00:43:41;99681.66;;;23.29
19061;BMP280;9663;48.996;8.334;2023-07-02T00:46:18;99679.81;;;23.31
19061;BMP280;9663;48.996;8.334;2023-07-02T00:48:55;99676.28;;;23.32
19061;BMP280;9663;48.996;8.334;2023-07-02T00:51:25;99681.47;;;23.32
19061;BMP280;9663;48.996;8.334;2023-07-02T00:53:57;99683.03;;;23.34
19061;BMP280;9663;48.996;8.334;2023-07-02T00:56:25;99681.28;;;23.35
19061;BMP280;9663;48.996;8.334;2023-07-02T00:58:54;99682.94;;;23.36
19061;BMP280;9663;48.996;8.334;2023-07-02T01:01:22;99685.22;;;23.40
19061;BMP280;9663;48.996;8.334;2023-07-02T01:03:59;99691.25;;;23.41
19061;BMP280;9663;48.996;8.334;2023-07-02T01:06:28;99687.59;;;23.43
19061;BMP280;9663;48.996;8.334;2023-07-02T01:08:56;99684.81;;;23.46
19061;BMP280;9663;48.996;8.334;2023-07-02T01:11:27;99687.31;;;23.48
19061;BMP280;9663;48.996;8.334;2023-07-02T01:14:12;99690.00;;;23.46
19061;BMP280;9663;48.996;8.334;2023-07-02T01:16:42;99691.53;;;23.49
19061;BMP280;9663;48.996;8.334;2023-07-02T01:19:18;99689.91;;;23.48
19061;BMP280;9663;48.996;8.334;2023-07-02T01:21:46;99693.22;;;23.50
19061;BMP280;9663;48.996;8.334;2023-07-02T01:24:13;99690.63;;;23.50
19061;BMP280;9663;48.996;8.334;2023-07-02T01:26:40;99688.97;;;23.49
19061;BMP280;9663;48.996;8.334;2023-07-02T01:29:20;99703.94;;;23.44
19061;BMP280;9663;48.996;8.334;2023-07-02T01:31:47;99701.38;;;23.44
19061;BMP280;9663;48.996;8.334;2023-07-02T01:34:13;99704.91;;;23.43
19061;BMP280;9663;48.996;8.334;2023-07-02T01:36:40;99696.41;;;23.41
19061;BMP280;9663;48.996;8.334;2023-07-02T01:39:06;99712.84;;;23.40
19061;BMP280;9663;48.996;8.334;2023-07-02T01:41:51;99707.97;;;23.35
19061;BMP280;9663;48.996;8.334;2023-07-02T01:44:18;99704.47;;;23.36
19061;BMP280;9663;48.996;8.334;2023-07-02T01:46:45;99698.47;;;23.36
19061;BMP280;9663;48.996;8.334;2023-07-02T01:49:18;99702.97;;;23.32
19061;BMP280;9663;48.996;8.334;2023-07-02T01:52:02;99705.25;;;23.24
19061;BMP280;9663;48.996;8.334;2023-07-02T01:54:29;99708.66;;;23.25
19061;BMP280;9663;48.996;8.334;2023-07-02T01:56:56;99713.13;;;23.23
19061;BMP280;9663;48.996;8.334;2023-07-02T01:59:22;99708.31;;;23.17
19061;BMP280;9663;48.996;8.334;2023-07-02T02:01:47;99707.69;;;23.14
19061;BMP280;9663;48.996;8.334;2023-07-02T02:04:13;99720.88;;;23.09
19061;BMP280;9663;48.996;8.334;2023-07-02T02:06:40;99717.47;;;23.09
19061;BMP280;9663;48.996;8.334;2023-07-02T02:09:07;99712.31;;;23.09
19061;BMP280;9663;48.996;8.334;2023-07-02T02:11:39;99716.66;;;23.08
19061;BMP280;9663;48.996;8.334;2023-07-02T02:14:05;99710.00;;;23.04
19061;BMP280;9663;48.996;8.334;2023-07-02T02:16:31;99718.81;;;23.02
19061;BMP280;9663;48.996;8.334;2023-07-02T02:18:59;99714.44;;;23.02
19061;BMP280;9663;48.996;8.334;2023-07-02T02:21:26;99717.22;;;22.99
19061;BMP280;9663;48.996;8.334;2023-07-02T02:23:52;99717.31;;;22.98
19061;BMP280;9663;48.996;8.334;2023-07-02T02:26:18;99720.13;;;22.95
19061;BMP280;9663;48.996;8.334;2023-07-02T02:28:46;99720.31;;;22.92
19061;BMP280;9663;48.996;8.334;2023-07-02T02:31:12;99729.03;;;22.89
19061;BMP280;9663;48.996;8.334;2023-07-02T02:33:38;99723.22;;;22.86
19061;BMP280;9663;48.996;8.334;2023-07-02T02:36:04;99728.50;;;22.84
19061;BMP280;9663;48.996;8.334;2023-07-02T02:38:29;99726.00;;;22.83
19061;BMP280;9663;48.996;8.334;2023-07-02T02:40:55;99724.44;;;22.80
19061;BMP280;9663;48.996;8.334;2023-07-02T02:43:21;99721.94;;;22.79
19061;BMP280;9663;48.996;8.334;2023-07-02T02:45:48;99727.31;;;22.76
19061;BMP280;9663;48.996;8.334;2023-07-02T02:48:13;99718.91;;;22.73
19061;BMP280;9663;48.996;8.334;2023-07-02T02:50:39;99726.66;;;22.73
19061;BMP280;9663;48.996;8.334;2023-07-02T02:53:10;99731.19;;;22.69
19061;BMP280;9663;48.996;8.334;2023-07-02T02:55:36;99722.72;;;22.67
19061;BMP280;9663;48.996;8.334;2023-07-02T02:58:03;99729.59;;;22.67
19061;BMP280;9663;48.996;8.334;2023-07-02T03:00:29;99731.38;;;22.66
19061;BMP280;9663;48.996;8.334;2023-07-02T03:02:55;99729.59;;;22.67
19061;BMP280;9663;48.996;8.334;2023-07-02T03:05:22;99735.53;;;22.69
19061;BMP280;9663;48.996;8.334;2023-07-02T03:07:48;99740.72;;;22.69
19061;BMP280;9663;48.996;8.334;2023-07-02T03:10:13;99737.28;;;22.68
19061;BMP280;9663;48.996;8.334;2023-07-02T03:12:39;99739.94;;;22.67
19061;BMP280;9663;48.996;8.334;2023-07-02T03:15:05;99740.88;;;22.66
19061;BMP280;9663;48.996;8.334;2023-07-02T03:17:31;99749.66;;;22.63
19061;BMP280;9663;48.996;8.334;2023-07-02T03:19:57;99743.00;;;22.59
19061;BMP280;9663;48.996;8.334;2023-07-02T03:22:22;99750.75;;;22.59
19061;BMP280;9663;48.996;8.334;2023-07-02T03:24:48;99755.13;;;22.59
19061;BMP280;9663;48.996;8.334;2023-07-02T03:27:14;99749.81;;;22.60
19061;BMP280;9663;48.996;8.334;2023-07-02T03:29:39;99750.69;;;22.61
19061;BMP280;9663;48.996;8.334;2023-07-02T03:32:05;99757.50;;;22.62
19061;BMP280;9663;48.996;8.334;2023-07-02T03:34:31;99761.00;;;22.61
19061;BMP280;9663;48.996;8.334;2023-07-02T03:36:57;99765.44;;;22.59
19061;BMP280;9663;48.996;8.334;2023-07-02T03:39:23;99765.53;;;22.57
19061;BMP280;9663;48.996;8.334;2023-07-02T03:41:48;99763.88;;;22.56
19061;BMP280;9663;48.996;8.334;2023-07-02T03:44:14;99768.31;;;22.54
19061;BMP280;9663;48.996;8.334;2023-07-02T03:46:40;99771.78;;;22.53
19061;BMP280;9663;48.996;8.334;2023-07-02T03:49:06;99775.22;;;22.54
19061;BMP280;9663;48.996;8.334;2023-07-02T03:51:32;99781.22;;;22.54
19061;BMP280;9663;48.996;8.334;2023-07-02T03:54:01;99770.97;;;22.53
19061;BMP280;9663;48.996;8.334;2023-07-02T03:56:26;99787.38;;;22.52
19061;BMP280;9663;48.996;8.334;2023-07-02T03:58:53;99794.31;;;22.51
19061;BMP280;9663;48.996;8.334;2023-07-02T04:01:18;99795.22;;;22.50
19061;BMP280;9663;48.996;8.334;2023-07-02T04:03:49;99802.25;;;22.48
19061;BMP280;9663;48.996;8.334;2023-07-02T04:06:16;99798.03;;;22.47
19061;BMP280;9663;48.996;8.334;2023-07-02T04:08:42;99802.34;;;22.47
19061;BMP280;9663;48.996;8.334;2023-07-02T04:11:09;99805.78;;;22.47
19061;BMP280;9663;48.996;8.334;2023-07-02T04:13:35;99809.34;;;22.45
19061;BMP280;9663;48.996;8.334;2023-07-02T04:16:01;99809.34;;;22.45
19061;BMP280;9663;48.996;8.334;2023-07-02T04:18:26;99803.91;;;22.49
19061;BMP280;9663;48.996;8.334;2023-07-02T04:20:54;99815.81;;;22.52
19061;BMP280;9663;48.996;8.334;2023-07-02T04:23:20;99823.47;;;22.53
19061;BMP280;9663;48.996;8.334;2023-07-02T04:25:46;99820.06;;;22.53
19061;BMP280;9663;48.996;8.334;2023-07-02T04:28:12;99822.66;;;22.53
19061;BMP280;9663;48.996;8.334;2023-07-02T04:30:38;99822.66;;;22.53
19061;BMP280;9663;48.996;8.334;2023-07-02T04:33:03;99831.88;;;22.57
19061;BMP280;9663;48.996;8.334;2023-07-02T04:35:34;99828.38;;;22.58
19061;BMP280;9663;48.996;8.334;2023-07-02T04:38:03;99827.47;;;22.59
19061;BMP280;9663;48.996;8.334;2023-07-02T04:40:28;99837.81;;;22.59
19061;BMP280;9663;48.996;8.334;2023-07-02T04:42:54;99829.28;;;22.57
19061;BMP280;9663;48.996;8.334;2023-07-02T04:45:27;99833.38;;;22.61
19061;BMP280;9663;48.996;8.334;2023-07-02T04:48:01;99841.78;;;22.64
19061;BMP280;9663;48.996;8.334;2023-07-02T04:50:26;99836.44;;;22.67
19061;BMP280;9663;48.996;8.334;2023-07-02T04:52:52;99836.03;;;22.73
19061;BMP280;9663;48.996;8.334;2023-07-02T04:55:18;99840.31;;;22.74
19061;BMP280;9663;48.996;8.334;2023-07-02T04:57:44;99846.22;;;22.76
19061;BMP280;9663;48.996;8.334;2023-07-02T05:00:11;99858.22;;;22.77
19061;BMP280;9663;48.996;8.334;2023-07-02T05:02:38;99852.97;;;22.78
19061;BMP280;9663;48.996;8.334;2023-07-02T05:05:04;99851.94;;;22.81
19061;BMP280;9663;48.996;8.334;2023-07-02T05:07:30;99855.00;;;22.87
19061;BMP280;9663;48.996;8.334;2023-07-02T05:09:55;99849.66;;;22.90
19061;BMP280;9663;48.996;8.334;2023-07-02T05:12:22;99852.00;;;22.95
19061;BMP280;9663;48.996;8.334;2023-07-02T05:14:48;99853.53;;;22.97
19061;BMP280;9663;48.996;8.334;2023-07-02T05:17:14;99860.31;;;23.00
19061;BMP280;9663;48.996;8.334;2023-07-02T05:19:43;99853.09;;;23.05
19061;BMP280;9663;48.996;8.334;2023-07-02T05:22:09;99863.06;;;23.11
19061;BMP280;9663;48.996;8.334;2023-07-02T05:24:35;99856.03;;;23.13
19061;BMP280;9663;48.996;8.334;2023-07-02T05:27:01;99871.28;;;23.17
19061;BMP280;9663;48.996;8.334;2023-07-02T05:29:27;99871.19;;;23.18
19061;BMP280;9663;48.996;8.334;2023-07-02T05:31:58;99876.19;;;23.21
19061;BMP280;9663;48.996;8.334;2023-07-02T05:34:24;99883.84;;;23.23
19061;BMP280;9663;48.996;8.334;2023-07-02T05:36:50;99874.97;;;23.27
19061;BMP280;9663;48.996;8.334;2023-07-02T05:39:15;99874.78;;;23.30
19061;BMP280;9663;48.996;8.334;2023-07-02T05:41:41;99875.41;;;23.33
19061;BMP280;9663;48.996;8.334;2023-07-02T05:44:07;99875.06;;;23.39
19061;BMP280;9663;48.996;8.334;2023-07-02T05:46:32;99874.66;;;23.45
19061;BMP280;9663;48.996;8.334;2023-07-02T05:48:58;99876.78;;;23.53
19061;BMP280;9663;48.996;8.334;2023-07-02T05:51:25;99876.59;;;23.56
19061;BMP280;9663;48.996;8.334;2023-07-02T05:53:52;99867.06;;;23.56
19061;BMP280;9663;48.996;8.334;2023-07-02T05:56:18;99879.91;;;23.58
19061;BMP280;9663;48.996;8.334;2023-07-02T05:58:46;99879.72;;;23.60
19061;BMP280;9663;48.996;8.334;2023-07-02T06:01:12;99880.31;;;23.65
19061;BMP280;9663;48.996;8.334;2023-07-02T06:03:38;99883.53;;;23.69
19061;BMP280;9663;48.996;8.334;2023-07-02T06:06:03;99890.16;;;23.73
19061;BMP280;9663;48.996;8.334;2023-07-02T06:08:29;99895.97;;;23.76
19061;BMP280;9663;48.996;8.334;2023-07-02T06:10:55;99890.69;;;23.78
19061;BMP280;9663;48.996;8.334;2023-07-02T06:13:21;99893.19;;;23.79
19061;BMP280;9663;48.996;8.334;2023-07-02T06:15:46;99898.00;;;23.85
19061;BMP280;9663;48.996;8.334;2023-07-02T06:18:13;99895.97;;;23.90
19061;BMP280;9663;48.996;8.334;2023-07-02T06:20:38;99895.00;;;23.91
19061;BMP280;9663;48.996;8.334;2023-07-02T06:23:04;99892.13;;;23.96
19061;BMP280;9663;48.996;8.334;2023-07-02T06:25:30;99900.16;;;24.05
19061;BMP280;9663;48.996;8.334;2023-07-02T06:27:56;99903.81;;;24.15
19061;BMP280;9663;48.996;8.334;2023-07-02T06:30:24;99906.03;;;24.21
19061;BMP280;9663;48.996;8.334;2023-07-02T06:32:50;99908.28;;;24.25
19061;BMP280;9663;48.996;8.334;2023-07-02T06:35:16;99907.38;;;24.26
19061;BMP280;9663;48.996;8.334;2023-07-02T06:37:42;99896.75;;;24.31
19061;BMP280;9663;48.996;8.334;2023-07-02T06:40:08;99904.13;;;24.37
19061;BMP280;9663;48.996;8.334;2023-07-02T06:42:34;99903.00;;;24.41
19061;BMP280;9663;48.996;8.334;2023-07-02T06:45:02;99906.22;;;24.44
19061;BMP280;9663;48.996;8.334;2023-07-02T06:47:28;99907.38;;;24.52
19061;BMP280;9663;48.996;8.334;2023-07-02T06:49:53;99900.94;;;24.58
19061;BMP280;9663;48.996;8.334;2023-07-02T06:52:19;99909.03;;;24.66
19061;BMP280;9663;48.996;8.334;2023-07-02T06:54:45;99908.53;;;24.73
19061;BMP280;9663;48.996;8.334;2023-07-02T06:57:13;99909.06;;;24.78
19061;BMP280;9663;48.996;8.334;2023-07-02T06:59:38;99902.00;;;24.80
19061;BMP280;9663;48.996;8.334;2023-07-02T07:02:04;99914.97;;;24.80
19061;BMP280;9663;48.996;8.334;2023-07-02T07:04:30;99914.97;;;24.80
19061;BMP280;9663;48.996;8.334;2023-07-02T07:06:55;99913.00;;;24.84
19061;BMP280;9663;48.996;8.334;2023-07-02T07:09:21;99910.84;;;24.90
19061;BMP280;9663;48.996;8.334;2023-07-02T07:11:47;99910.50;;;24.94
19061;BMP280;9663;48.996;8.334;2023-07-02T07:14:13;99909.31;;;25.00
19061;BMP280;9663;48.996;8.334;2023-07-02T07:16:39;99916.56;;;25.07
19061;BMP280;9663;48.996;8.334;2023-07-02T07:19:05;99911.88;;;25.12
19061;BMP280;9663;48.996;8.334;2023-07-02T07:21:31;99916.78;;;25.17
19061;BMP280;9663;48.996;8.334;2023-07-02T07:23:57;99913.34;;;25.16
19061;BMP280;9663;48.996;8.334;2023-07-02T07:26:23;99912.63;;;25.14
19061;BMP280;9663;48.996;8.334;2023-07-02T07:28:48;99917.94;;;25.13
19061;BMP280;9663;48.996;8.334;2023-07-02T07:31:15;99919.56;;;25.14
19061;BMP280;9663;48.996;8.334;2023-07-02T07:33:40;99917.69;;;25.16
19061;BMP280;9663;48.996;8.334;2023-07-02T07:36:06;99919.25;;;25.18
19061;BMP280;9663;48.996;8.334;2023-07-02T07:38:32;99913.03;;;25.21
19061;BMP280;9663;48.996;8.334;2023-07-02T07:40:57;99921.66;;;25.21
19061;BMP280;9663;48.996;8.334;2023-07-02T07:43:23;99923.28;;;25.22
19061;BMP280;9663;48.996;8.334;2023-07-02T07:45:49;99929.97;;;25.26
19061;BMP280;9663;48.996;8.334;2023-07-02T07:48:15;99922.38;;;25.35
19061;BMP280;9663;48.996;8.334;2023-07-02T07:50:40;99915.09;;;25.40
19061;BMP280;9663;48.996;8.334;2023-07-02T07:53:06;99913.03;;;25.45
19061;BMP280;9663;48.996;8.334;2023-07-02T07:55:32;99912.06;;;25.46
19061;BMP280;9663;48.996;8.334;2023-07-02T07:57:57;99916.72;;;25.54
19061;BMP280;9663;48.996;8.334;2023-07-02T08:00:23;99917.69;;;25.65
19061;BMP280;9663;48.996;8.334;2023-07-02T08:02:50;99915.84;;;25.78
19061;BMP280;9663;48.996;8.334;2023-07-02T08:05:17;99919.34;;;25.89
19061;BMP280;9663;48.996;8.334;2023-07-02T08:07:43;99920.03;;;26.04
19061;BMP280;9663;48.996;8.334;2023-07-02T08:10:09;99908.28;;;26.21
19061;BMP280;9663;48.996;8.334;2023-07-02T08:12:35;99914.91;;;26.38
19061;BMP280;9663;48.996;8.334;2023-07-02T08:15:01;99911.75;;;26.45
19061;BMP280;9663;48.996;8.334;2023-07-02T08:17:27;99916.47;;;26.51
19061;BMP280;9663;48.996;8.334;2023-07-02T08:19:53;99917.94;;;26.55
19061;BMP280;9663;48.996;8.334;2023-07-02T08:22:18;99921.94;;;26.59
19061;BMP280;9663;48.996;8.334;2023-07-02T08:24:44;99894.75;;;26.63
19061;BMP280;9663;48.996;8.334;2023-07-02T08:27:10;99908.81;;;26.61
19061;BMP280;9663;48.996;8.334;2023-07-02T08:29:39;99894.16;;;26.60
19061;BMP280;9663;48.996;8.334;2023-07-02T08:32:05;99921.25;;;26.57
19061;BMP280;9663;48.996;8.334;2023-07-02T08:34:30;99908.56;;;26.53
19061;BMP280;9663;48.996;8.334;2023-07-02T08:36:56;99912.00;;;26.53
19061;BMP280;9663;48.996;8.334;2023-07-02T08:39:22;99909.53;;;26.63
19061;BMP280;9663;48.996;8.334;2023-07-02T08:41:48;99909.56;;;26.73
19061;BMP280;9663;48.996;8.334;2023-07-02T08:44:19;99906.50;;;26.79
19061;BMP280;9663;48.996;8.334;2023-07-02T08:46:46;99902.63;;;26.85
19061;BMP280;9663;48.996;8.334;2023-07-02T08:49:16;99904.38;;;26.84
19061;BMP280;9663;48.996;8.334;2023-07-02T08:51:46;99909.84;;;26.81
19061;BMP280;9663;48.996;8.334;2023-07-02T08:54:12;99914.31;;;26.79
19061;BMP280;9663;48.996;8.334;2023-07-02T08:56:39;99919.38;;;26.81
19061;BMP280;9663;48.996;8.334;2023-07-02T08:59:07;99905.44;;;26.82
19061;BMP280;9663;48.996;8.334;2023-07-02T09:01:48;99910.44;;;26.85
19061;BMP280;9663;48.996;8.334;2023-07-02T09:04:24;99907.53;;;27.00
19061;BMP280;9663;48.996;8.334;2023-07-02T09:07:11;99903.97;;;27.12
19061;BMP280;9663;48.996;8.334;2023-07-02T09:09:48;99902.09;;;27.25
19061;BMP280;9663;48.996;8.334;2023-07-02T09:12:25;99901.50;;;27.32
19061;BMP280;9663;48.996;8.334;2023-07-02T09:15:01;99901.25;;;27.35
19061;BMP280;9663;48.996;8.334;2023-07-02T09:17:32;99910.03;;;27.34
19061;BMP280;9663;48.996;8.334;2023-07-02T09:19:59;99919.84;;;27.31
19061;BMP280;9663;48.996;8.334;2023-07-02T09:22:30;99910.25;;;27.31
19061;BMP280;9663;48.996;8.334;2023-07-02T09:24:58;99907.53;;;27.33
19061;BMP280;9663;48.996;8.334;2023-07-02T09:27:39;99910.72;;;27.25
19061;BMP280;9663;48.996;8.334;2023-07-02T09:30:13;99917.22;;;27.20
19061;BMP280;9663;48.996;8.334;2023-07-02T09:32:50;99896.88;;;27.14
19061;BMP280;9663;48.996;8.334;2023-07-02T09:35:20;99906.69;;;27.10
19061;BMP280;9663;48.996;8.334;2023-07-02T09:37:49;99908.47;;;27.10
19061;BMP280;9663;48.996;8.334;2023-07-02T09:40:16;99911.66;;;27.13
19061;BMP280;9663;48.996;8.334;2023-07-02T09:42:47;99911.69;;;27.24
19061;BMP280;9663;48.996;8.334;2023-07-02T09:45:20;99906.91;;;27.73
19061;BMP280;9663;48.996;8.334;2023-07-02T09:47:51;99900.34;;;27.47
19061;BMP280;9663;48.996;8.334;2023-07-02T09:50:19;99888.72;;;27.51
19061;BMP280;9663;48.996;8.334;2023-07-02T09:52:47;99897.47;;;27.61
19061;BMP280;9663;48.996;8.334;2023-07-02T09:55:14;99889.31;;;27.65
19061;BMP280;9663;48.996;8.334;2023-07-02T09:57:43;99894.16;;;27.70
19061;BMP280;9663;48.996;8.334;2023-07-02T10:00:09;99892.03;;;27.75
19061;BMP280;9663;48.996;8.334;2023-07-02T10:02:35;99904.06;;;27.87
19061;BMP280;9663;48.996;8.334;2023-07-02T10:05:01;99891.50;;;28.54
19061;BMP280;9663;48.996;8.334;2023-07-02T10:07:31;99886.25;;;28.34
19061;BMP280;9663;48.996;8.334;2023-07-02T10:10:00;99882.19;;;28.61
19061;BMP280;9663;48.996;8.334;2023-07-02T10:12:28;99879.16;;;28.56
19061;BMP280;9663;48.996;8.334;2023-07-02T10:14:57;99882.91;;;28.63
19061;BMP280;9663;48.996;8.334;2023-07-02T10:17:34;99873.50;;;28.71
19061;BMP280;9663;48.996;8.334;2023-07-02T10:20:08;99879.22;;;29.15
19061;BMP280;9663;48.996;8.334;2023-07-02T10:22:44;99876.72;;;29.04
19061;BMP280;9663;48.996;8.334;2023-07-02T10:25:10;99879.47;;;29.12
19061;BMP280;9663;48.996;8.334;2023-07-02T10:27:40;99886.19;;;29.26
19061;BMP280;9663;48.996;8.334;2023-07-02T10:30:09;99878.50;;;29.33
19061;BMP280;9663;48.996;8.334;2023-07-02T10:32:36;99871.50;;;29.82
19061;BMP280;9663;48.996;8.334;2023-07-02T10:35:23;99882.41;;;29.39
19061;BMP280;9663;48.996;8.334;2023-07-02T10:37:51;99881.13;;;29.33
19061;BMP280;9663;48.996;8.334;2023-07-02T10:40:17;99874.81;;;29.36
19061;BMP280;9663;48.996;8.334;2023-07-02T10:42:50;99874.44;;;29.40
19061;BMP280;9663;48.996;8.334;2023-07-02T10:45:17;99869.94;;;29.52
19061;BMP280;9663;48.996;8.334;2023-07-02T10:47:43;99872.41;;;29.63
19061;BMP280;9663;48.996;8.334;2023-07-02T10:50:21;99879.34;;;29.73
19061;BMP280;9663;48.996;8.334;2023-07-02T10:52:49;99863.00;;;29.80
19061;BMP280;9663;48.996;8.334;2023-07-02T10:55:25;99874.00;;;29.84
19061;BMP280;9663;48.996;8.334;2023-07-02T10:58:06;99866.03;;;29.85
19061;BMP280;9663;48.996;8.334;2023-07-02T11:00:32;99862.03;;;30.00
19061;BMP280;9663;48.996;8.334;2023-07-02T11:02:59;99874.59;;;30.15
19061;BMP280;9663;48.996;8.334;2023-07-02T11:05:25;99878.84;;;30.26
19061;BMP280;9663;48.996;8.334;2023-07-02T11:07:51;99866.31;;;30.29
19061;BMP280;9663;48.996;8.334;2023-07-02T11:10:23;99874.97;;;30.30
19061;BMP280;9663;48.996;8.334;2023-07-02T11:12:49;99865.63;;;30.27
19061;BMP280;9663;48.996;8.334;2023-07-02T11:15:16;99865.09;;;30.24
19061;BMP280;9663;48.996;8.334;2023-07-02T11:17:46;99870.84;;;30.18
19061;BMP280;9663;48.996;8.334;2023-07-02T11:20:13;99870.19;;;30.16
19061;BMP280;9663;48.996;8.334;2023-07-02T11:22:40;99869.78;;;30.20
19061;BMP280;9663;48.996;8.334;2023-07-02T11:25:19;99857.97;;;30.35
19061;BMP280;9663;48.996;8.334;2023-07-02T11:27:45;99860.69;;;30.43
19061;BMP280;9663;48.996;8.334;2023-07-02T11:30:12;99853.00;;;30.42
19061;BMP280;9663;48.996;8.334;2023-07-02T11:32:54;99853.25;;;31.03
19061;BMP280;9663;48.996;8.334;2023-07-02T11:35:21;99850.28;;;31.95
19061;BMP280;9663;48.996;8.334;2023-07-02T11:37:48;99848.81;;;32.95
19061;BMP280;9663;48.996;8.334;2023-07-02T11:40:17;99849.38;;;33.97
19061;BMP280;9663;48.996;8.334;2023-07-02T11:42:42;99841.31;;;34.85
19061;BMP280;9663;48.996;8.334;2023-07-02T11:45:09;99828.94;;;35.70
19061;BMP280;9663;48.996;8.334;2023-07-02T11:47:35;99826.59;;;36.27
19061;BMP280;9663;48.996;8.334;2023-07-02T11:50:01;99821.25;;;36.35
19061;BMP280;9663;48.996;8.334;2023-07-02T11:52:27;99816.53;;;36.45
19061;BMP280;9663;48.996;8.334;2023-07-02T11:54:52;99817.38;;;36.74
19061;BMP280;9663;48.996;8.334;2023-07-02T11:57:18;99812.94;;;36.89
19061;BMP280;9663;48.996;8.334;2023-07-02T11:59:45;99797.09;;;36.74
19061;BMP280;9663;48.996;8.334;2023-07-02T12:02:10;99814.28;;;36.71
19061;BMP280;9663;48.996;8.334;2023-07-02T12:04:36;99812.63;;;36.55
19061;BMP280;9663;48.996;8.334;2023-07-02T12:07:01;99810.59;;;36.57
19061;BMP280;9663;48.996;8.334;2023-07-02T12:09:29;99808.72;;;36.07
19061;BMP280;9663;48.996;8.334;2023-07-02T12:11:55;99823.78;;;35.46
19061;BMP280;9663;48.996;8.334;2023-07-02T12:14:20;99814.44;;;34.97
19061;BMP280;9663;48.996;8.334;2023-07-02T12:16:46;99817.38;;;35.10
19061;BMP280;9663;48.996;8.334;2023-07-02T12:19:12;99813.50;;;35.59
19061;BMP280;9663;48.996;8.334;2023-07-02T12:21:37;99816.06;;;36.19
19061;BMP280;9663;48.996;8.334;2023-07-02T12:24:03;99798.81;;;36.68
19061;BMP280;9663;48.996;8.334;2023-07-02T12:26:35;99804.38;;;37.16
19061;BMP280;9663;48.996;8.334;2023-07-02T12:29:00;99802.94;;;37.83
19061;BMP280;9663;48.996;8.334;2023-07-02T12:31:26;99785.97;;;38.19
19061;BMP280;9663;48.996;8.334;2023-07-02T12:33:51;99807.28;;;37.70
19061;BMP280;9663;48.996;8.334;2023-07-02T12:36:17;99810.91;;;37.05
19061;BMP280;9663;48.996;8.334;2023-07-02T12:38:43;99801.00;;;37.07
19061;BMP280;9663;48.996;8.334;2023-07-02T12:41:08;99784.78;;;37.45
19061;BMP280;9663;48.996;8.334;2023-07-02T12:43:34;99800.06;;;37.99
19061;BMP280;9663;48.996;8.334;2023-07-02T12:45:59;99795.81;;;38.52
19061;BMP280;9663;48.996;8.334;2023-07-02T12:48:25;99795.81;;;38.80
19061;BMP280;9663;48.996;8.334;2023-07-02T12:50:58;99798.00;;;38.43
19061;BMP280;9663;48.996;8.334;2023-07-02T12:53:26;99799.84;;;38.21
19061;BMP280;9663;48.996;8.334;2023-07-02T12:55:52;99791.69;;;38.71
19061;BMP280;9663;48.996;8.334;2023-07-02T12:58:18;99803.03;;;38.38
19061;BMP280;9663;48.996;8.334;2023-07-02T13:00:45;99793.88;;;38.40
19061;BMP280;9663;48.996;8.334;2023-07-02T13:03:12;99790.28;;;38.75
19061;BMP280;9663;48.996;8.334;2023-07-02T13:05:38;99792.47;;;39.05
19061;BMP280;9663;48.996;8.334;2023-07-02T13:08:05;99788.97;;;39.32
19061;BMP280;9663;48.996;8.334;2023-07-02T13:10:33;99770.44;;;39.57
19061;BMP280;9663;48.996;8.334;2023-07-02T13:12:59;99753.78;;;39.70
19061;BMP280;9663;48.996;8.334;2023-07-02T13:15:25;99767.16;;;39.49
19061;BMP280;9663;48.996;8.334;2023-07-02T13:17:50;99766.13;;;39.43
19061;BMP280;9663;48.996;8.334;2023-07-02T13:20:16;99770.03;;;39.60
19061;BMP280;9663;48.996;8.334;2023-07-02T13:22:42;99771.91;;;39.60
19061;BMP280;9663;48.996;8.334;2023-07-02T13:25:08;99757.81;;;39.59
19061;BMP280;9663;48.996;8.334;2023-07-02T13:27:34;99761.94;;;39.75
19061;BMP280;9663;48.996;8.334;2023-07-02T13:29:59;99763.94;;;39.66
19061;BMP280;9663;48.996;8.334;2023-07-02T13:32:25;99764.38;;;39.70
19061;BMP280;9663;48.996;8.334;2023-07-02T13:34:51;99751.34;;;39.94
19061;BMP280;9663;48.996;8.334;2023-07-02T13:37:17;99758.66;;;39.92
19061;BMP280;9663;48.996;8.334;2023-07-02T13:39:47;99762.50;;;39.64
19061;BMP280;9663;48.996;8.334;2023-07-02T13:42:14;99757.78;;;39.46
19061;BMP280;9663;48.996;8.334;2023-07-02T13:44:41;99750.25;;;39.50
19061;BMP280;9663;48.996;8.334;2023-07-02T13:47:08;99762.25;;;39.33
19061;BMP280;9663;48.996;8.334;2023-07-02T13:49:34;99770.31;;;39.19
19061;BMP280;9663;48.996;8.334;2023-07-02T13:52:00;99765.97;;;39.05
19061;BMP280;9663;48.996;8.334;2023-07-02T13:54:25;99768.75;;;38.84
19061;BMP280;9663;48.996;8.334;2023-07-02T13:56:52;99765.63;;;38.47
19061;BMP280;9663;48.996;8.334;2023-07-02T13:59:19;99764.22;;;38.24
19061;BMP280;9663;48.996;8.334;2023-07-02T14:01:47;99784.69;;;38.09
19061;BMP280;9663;48.996;8.334;2023-07-02T14:04:15;99765.25;;;37.61
19061;BMP280;9663;48.996;8.334;2023-07-02T14:06:41;99779.97;;;37.14
19061;BMP280;9663;48.996;8.334;2023-07-02T14:09:08;99777.56;;;36.75
19061;BMP280;9663;48.996;8.334;2023-07-02T14:11:38;99771.19;;;36.41
19061;BMP280;9663;48.996;8.334;2023-07-02T14:14:04;99780.75;;;36.20
19061;BMP280;9663;48.996;8.334;2023-07-02T14:16:31;99770.63;;;36.09
19061;BMP280;9663;48.996;8.334;2023-07-02T14:19:00;99765.13;;;35.96
19061;BMP280;9663;48.996;8.334;2023-07-02T14:21:26;99776.97;;;35.78
19061;BMP280;9663;48.996;8.334;2023-07-02T14:23:52;99767.97;;;35.65